createdAt,value
2018-03-14T00:01:14.437Z,98.10
2018-03-14T00:03:41.880Z,97.70
2018-03-14T00:06:09.309Z,97.50
2018-03-14T00:08:36.766Z,97.50
2018-03-14T00:11:04.198Z,97.70
2018-03-14T00:13:31.629Z,98.00
2018-03-14T00:15:59.058Z,97.80
2018-03-14T00:18:27.250Z,98.70
2018-03-14T00:20:54.694Z,98.70
2018-03-14T00:23:22.145Z,98.30
2018-03-14T00:25:50.984Z,98.10
2018-03-14T00:28:18.418Z,98.10
2018-03-14T00:30:45.853Z,98.00
2018-03-14T00:33:14.053Z,98.00
2018-03-14T00:35:41.494Z,98.00
2018-03-14T00:38:08.923Z,98.20
2018-03-14T00:40:36.365Z,97.80
2018-03-14T00:43:03.800Z,96.90
2018-03-14T00:45:31.248Z,96.40
2018-03-14T00:47:58.684Z,96.50
2018-03-14T00:50:26.123Z,96.60
2018-03-14T00:52:54.330Z,97.80
2018-03-14T00:55:21.768Z,97.70
2018-03-14T00:57:49.196Z,97.90
2018-03-14T01:00:16.675Z,97.70
2018-03-14T01:02:44.867Z,98.10
2018-03-14T01:05:12.456Z,98.10
2018-03-14T01:07:40.233Z,98.30
2018-03-14T01:10:07.701Z,99.10
2018-03-14T01:12:35.199Z,98.70
2018-03-14T01:15:02.565Z,98.20
2018-03-14T01:17:29.998Z,98.80
2018-03-14T01:19:58.206Z,98.10
2018-03-14T01:22:25.640Z,98.10
2018-03-14T01:24:53.073Z,97.60
2018-03-14T01:27:20.497Z,98.00
2018-03-14T01:29:47.942Z,97.80
2018-03-14T01:32:15.378Z,98.00
2018-03-14T01:34:42.838Z,97.70
2018-03-14T01:37:10.257Z,97.40
2018-03-14T01:39:37.698Z,97.50
2018-03-14T01:42:05.145Z,97.60
2018-03-14T01:44:32.622Z,98.10
2018-03-14T01:47:00.047Z,97.70
2018-03-14T01:49:27.482Z,97.00
2018-03-14T01:51:54.936Z,97.00
2018-03-14T01:54:22.386Z,96.80
2018-03-14T01:56:50.608Z,96.60
2018-03-14T01:59:18.057Z,96.60
2018-03-14T02:01:45.506Z,97.00
2018-03-14T02:04:12.967Z,97.10
2018-03-14T02:06:40.451Z,97.00
2018-03-14T02:09:07.889Z,96.90
2018-03-14T02:11:35.321Z,96.80
2018-03-14T02:14:02.766Z,96.50
2018-03-14T02:16:30.992Z,96.20
2018-03-14T02:18:58.419Z,95.70
2018-03-14T02:21:25.876Z,96.10
2018-03-14T02:23:53.344Z,95.80
2018-03-14T02:26:20.777Z,96.20
2018-03-14T02:28:48.205Z,96.10
2018-03-14T02:31:15.674Z,96.00
2018-03-14T02:33:43.886Z,95.40
2018-03-14T02:36:11.318Z,95.30
2018-03-14T02:38:40.424Z,95.60
2018-03-14T02:41:08.628Z,95.50
2018-03-14T02:43:36.067Z,95.50
2018-03-14T02:46:03.507Z,95.60
2018-03-14T02:48:30.969Z,95.60
2018-03-14T02:50:58.412Z,96.00
2018-03-14T02:53:26.601Z,96.10
2018-03-14T02:55:54.028Z,96.10
2018-03-14T02:58:22.324Z,96.40
2018-03-14T03:00:50.517Z,96.00
2018-03-14T03:03:18.040Z,96.00
2018-03-14T03:05:45.489Z,95.10
2018-03-14T03:08:12.935Z,95.00
2018-03-14T03:10:40.597Z,95.60
2018-03-14T03:13:08.049Z,95.60
2018-03-14T03:15:35.493Z,94.80
2018-03-14T03:18:02.939Z,94.80
2018-03-14T03:20:30.449Z,95.00
2018-03-14T03:22:58.656Z,94.40
2018-03-14T03:25:26.092Z,94.40
2018-03-14T03:27:54.302Z,95.10
2018-03-14T03:30:21.741Z,95.00
2018-03-14T03:32:49.218Z,94.60
2018-03-14T03:35:16.674Z,94.70
2018-03-14T03:37:44.097Z,94.40
2018-03-14T03:40:12.316Z,94.10
2018-03-14T03:42:40.685Z,94.00
2018-03-14T03:45:08.135Z,94.20
2018-03-14T03:47:35.569Z,93.90
2018-03-14T03:50:03.781Z,93.30
2018-03-14T03:52:31.204Z,93.30
2018-03-14T03:54:58.692Z,94.20
2018-03-14T03:57:26.142Z,94.10
2018-03-14T03:59:53.632Z,94.20
2018-03-14T04:02:21.089Z,94.20
2018-03-14T04:04:48.520Z,93.90
2018-03-14T04:07:15.949Z,94.40
2018-03-14T04:09:44.986Z,94.00
2018-03-14T04:12:12.428Z,94.00
2018-03-14T04:14:40.777Z,94.30
2018-03-14T04:17:09.010Z,94.60
2018-03-14T04:19:36.440Z,94.50
2018-03-14T04:22:03.904Z,93.60
2018-03-14T04:24:31.428Z,94.00
2018-03-14T04:26:59.613Z,94.40
2018-03-14T04:29:27.827Z,94.30
2018-03-14T04:31:55.271Z,94.20
2018-03-14T04:34:22.723Z,94.20
2018-03-14T04:36:50.156Z,94.10
2018-03-14T04:39:17.593Z,94.40
2018-03-14T04:41:45.815Z,94.40
2018-03-14T04:44:13.256Z,94.10
2018-03-14T04:46:40.753Z,93.90
2018-03-14T04:49:08.213Z,94.20
2018-03-14T04:51:35.684Z,94.40
2018-03-14T04:54:03.137Z,94.30
2018-03-14T04:56:30.578Z,94.20
2018-03-14T04:58:58.024Z,93.60
2018-03-14T05:01:25.443Z,93.90
2018-03-14T05:03:52.883Z,93.80
2018-03-14T05:06:20.325Z,93.60
2018-03-14T05:08:47.759Z,93.80
2018-03-14T05:11:15.198Z,93.90
2018-03-14T05:13:42.645Z,93.80
2018-03-14T05:16:10.091Z,94.00
2018-03-14T05:18:38.317Z,94.00
2018-03-14T05:21:05.774Z,94.00
2018-03-14T05:23:33.205Z,93.60
2018-03-14T05:26:00.642Z,94.00
2018-03-14T05:28:28.857Z,94.00
2018-03-14T05:30:56.303Z,93.90
2018-03-14T05:33:23.764Z,93.80
2018-03-14T05:35:51.197Z,93.40
2018-03-14T05:38:18.643Z,93.60
2018-03-14T05:40:47.188Z,93.60
2018-03-14T05:43:14.733Z,93.60
2018-03-14T05:45:42.158Z,93.60
2018-03-14T05:48:09.601Z,93.40
2018-03-14T05:50:37.824Z,93.80
2018-03-14T05:53:06.006Z,93.80
2018-03-14T05:55:33.454Z,93.80
2018-03-14T05:58:00.927Z,93.80
2018-03-14T06:00:28.365Z,93.70
2018-03-14T06:02:55.814Z,93.50
2018-03-14T06:05:23.256Z,93.80
2018-03-14T06:07:50.703Z,93.60
2018-03-14T06:10:18.137Z,93.60
2018-03-14T06:12:46.351Z,93.50
2018-03-14T06:15:13.786Z,93.40
2018-03-14T06:17:41.990Z,93.70
2018-03-14T06:20:09.438Z,93.70
2018-03-14T06:22:36.915Z,93.70
2018-03-14T06:25:04.462Z,93.50
2018-03-14T06:27:32.093Z,93.50
2018-03-14T06:30:00.304Z,93.50
2018-03-14T06:32:27.750Z,93.40
2018-03-14T06:34:55.224Z,93.60
2018-03-14T06:37:22.657Z,93.50
2018-03-14T06:39:50.110Z,93.80
2018-03-14T06:42:17.541Z,93.60
2018-03-14T06:44:45.773Z,93.40
2018-03-14T06:47:13.196Z,93.40
2018-03-14T06:49:41.009Z,93.40
2018-03-14T06:52:08.450Z,92.90
2018-03-14T06:54:35.887Z,92.80
2018-03-14T06:57:03.324Z,92.30
2018-03-14T06:59:43.460Z,92.00
2018-03-14T07:02:22.807Z,92.00
2018-03-14T07:05:03.040Z,92.50
2018-03-14T07:07:30.480Z,92.50
2018-03-14T07:09:57.909Z,92.30
2018-03-14T07:12:25.348Z,91.50
2018-03-14T07:14:52.786Z,91.90
2018-03-14T07:17:20.221Z,91.80
2018-03-14T07:19:47.675Z,92.10
2018-03-14T07:22:15.215Z,91.60
2018-03-14T07:24:42.655Z,91.30
2018-03-14T07:27:10.094Z,90.70
2018-03-14T07:29:38.321Z,88.80
2018-03-14T07:32:05.760Z,88.80
2018-03-14T07:34:33.194Z,90.70
2018-03-14T07:37:00.658Z,88.30
2018-03-14T07:39:28.101Z,89.30
2018-03-14T07:41:55.615Z,90.20
2018-03-14T07:44:23.067Z,90.00
2018-03-14T07:46:50.505Z,90.20
2018-03-14T07:49:17.960Z,90.40
2018-03-14T07:51:46.132Z,90.20
2018-03-14T07:54:13.569Z,89.90
2018-03-14T07:56:41.167Z,88.30
2018-03-14T07:59:08.609Z,87.50
2018-03-14T08:01:36.049Z,88.40
2018-03-14T08:04:03.495Z,87.00
2018-03-14T08:06:31.702Z,83.30
2018-03-14T08:08:59.129Z,83.10
2018-03-14T08:11:27.369Z,84.80
2018-03-14T08:13:54.908Z,84.80
2018-03-14T08:16:22.269Z,85.10
2018-03-14T08:18:49.702Z,85.30
2018-03-14T08:21:17.149Z,84.60
2018-03-14T08:23:44.586Z,85.10
2018-03-14T08:26:12.792Z,81.60
2018-03-14T08:28:41.136Z,81.60
2018-03-14T08:31:09.349Z,82.10
2018-03-14T08:33:36.810Z,82.00
2018-03-14T08:36:04.259Z,85.00
2018-03-14T08:38:31.664Z,83.70
2018-03-14T08:40:59.103Z,82.90
2018-03-14T08:43:26.529Z,84.00
2018-03-14T08:45:53.989Z,81.40
2018-03-14T08:48:21.417Z,78.50
2018-03-14T08:50:49.620Z,74.70
2018-03-14T08:53:17.056Z,74.50
2018-03-14T08:55:44.520Z,71.30
2018-03-14T08:58:11.963Z,70.30
2018-03-14T09:00:40.157Z,65.60
2018-03-14T09:03:08.476Z,65.50
2018-03-14T09:05:35.902Z,66.50
2018-03-14T09:08:03.350Z,65.20
2018-03-14T09:10:31.532Z,55.50
2018-03-14T09:12:58.971Z,55.50
2018-03-14T09:15:26.410Z,53.20
2018-03-14T09:17:54.609Z,43.70
2018-03-14T09:20:22.045Z,43.60
2018-03-14T09:22:50.250Z,37.20
2018-03-14T09:25:17.686Z,37.10
2018-03-14T09:27:45.888Z,39.70
2018-03-14T09:30:13.326Z,39.60
2018-03-14T09:32:41.349Z,41.50
2018-03-14T09:35:08.770Z,42.40
2018-03-14T09:37:36.272Z,43.90
2018-03-14T09:40:03.709Z,46.50
2018-03-14T09:42:31.163Z,50.20
2018-03-14T09:44:58.585Z,50.40
2018-03-14T09:47:26.038Z,53.60
2018-03-14T09:49:54.240Z,57.40
2018-03-14T09:52:21.672Z,57.40
2018-03-14T09:54:49.873Z,59.40
2018-03-14T09:57:17.319Z,59.40
2018-03-14T09:59:44.750Z,59.00
2018-03-14T10:02:12.958Z,61.20
2018-03-14T10:04:41.325Z,61.20
2018-03-14T10:07:08.757Z,58.70
2018-03-14T10:09:36.968Z,58.60
2018-03-14T10:12:04.414Z,58.60
2018-03-14T10:14:32.630Z,61.10
2018-03-14T10:17:00.076Z,60.80
2018-03-14T10:19:27.528Z,60.00
2018-03-14T10:21:54.993Z,59.70
2018-03-14T10:24:22.436Z,60.10
2018-03-14T10:26:49.854Z,61.70
2018-03-14T10:29:18.044Z,57.20
2018-03-14T10:31:45.499Z,57.20
2018-03-14T10:34:12.943Z,57.40
2018-03-14T10:36:41.326Z,57.00
2018-03-14T10:39:08.741Z,56.80
2018-03-14T10:41:36.184Z,55.30
2018-03-14T10:44:03.631Z,56.90
2018-03-14T10:46:31.065Z,59.00
2018-03-14T10:48:58.518Z,58.60
2018-03-14T10:51:26.752Z,57.00
2018-03-14T10:53:54.180Z,57.00
2018-03-14T10:56:21.621Z,55.70
2018-03-14T10:58:49.131Z,54.80
2018-03-14T11:01:16.589Z,53.80
2018-03-14T11:03:47.809Z,50.30
2018-03-14T11:06:15.237Z,45.30
2018-03-14T11:08:42.679Z,46.20
2018-03-14T11:11:10.893Z,44.40
2018-03-14T11:13:38.335Z,44.40
2018-03-14T11:16:05.787Z,46.40
2018-03-14T11:18:33.217Z,44.00
2018-03-14T11:21:01.422Z,46.00
2018-03-14T11:23:28.892Z,45.90
2018-03-14T11:25:56.326Z,44.80
2018-03-14T11:28:24.541Z,46.90
2018-03-14T11:30:51.984Z,46.90
2018-03-14T11:33:19.439Z,49.80
2018-03-14T11:35:46.875Z,46.80
2018-03-14T11:38:14.315Z,48.80
2018-03-14T11:40:42.534Z,49.10
2018-03-14T11:43:09.973Z,49.00
2018-03-14T11:45:37.546Z,47.80
2018-03-14T11:48:04.965Z,47.60
2018-03-14T11:50:33.203Z,45.70
2018-03-14T11:53:00.704Z,45.50
2018-03-14T11:55:28.928Z,43.90
2018-03-14T11:57:56.396Z,43.90
2018-03-14T12:00:23.841Z,42.00
2018-03-14T12:02:51.287Z,39.90
2018-03-14T12:05:18.733Z,39.30
2018-03-14T12:07:46.170Z,39.20
2018-03-14T12:10:14.403Z,44.00
2018-03-14T12:12:41.866Z,43.90
2018-03-14T12:15:09.265Z,45.20
2018-03-14T12:17:37.456Z,42.90
2018-03-14T12:20:04.892Z,42.90
2018-03-14T12:22:33.097Z,42.50
2018-03-14T12:25:00.550Z,42.50
2018-03-14T12:27:27.966Z,45.40
2018-03-14T12:29:55.406Z,43.40
2018-03-14T12:32:22.849Z,42.20
2018-03-14T12:34:50.291Z,39.40
2018-03-14T12:37:17.773Z,39.30
2018-03-14T12:39:45.209Z,38.10
2018-03-14T12:42:13.436Z,37.50
2018-03-14T12:44:41.773Z,37.10
2018-03-14T12:47:09.212Z,36.80
2018-03-14T12:49:36.689Z,34.80
2018-03-14T12:52:04.131Z,35.50
2018-03-14T12:54:31.606Z,31.30
2018-03-14T12:56:59.068Z,30.80
2018-03-14T12:59:26.527Z,30.00
2018-03-14T13:01:53.956Z,30.20
2018-03-14T13:04:21.413Z,30.70
2018-03-14T13:06:48.836Z,30.50
2018-03-14T13:09:17.064Z,29.40
2018-03-14T13:11:44.562Z,29.40
2018-03-14T13:14:11.978Z,30.00
2018-03-14T13:16:39.423Z,29.50
2018-03-14T13:19:06.849Z,28.90
2018-03-14T13:21:35.053Z,28.80
2018-03-14T13:24:02.486Z,28.70
2018-03-14T13:26:29.921Z,28.50
2018-03-14T13:28:58.113Z,28.80
2018-03-14T13:31:26.304Z,29.50
2018-03-14T13:33:53.764Z,29.40
2018-03-14T13:36:21.215Z,30.70
2018-03-14T13:38:48.660Z,33.30
2018-03-14T13:41:16.842Z,34.00
2018-03-14T13:43:44.283Z,34.00
2018-03-14T13:46:12.762Z,33.80
2018-03-14T13:48:41.883Z,31.70
2018-03-14T13:51:09.354Z,31.70
2018-03-14T13:53:36.801Z,30.30
2018-03-14T13:56:04.235Z,30.60
2018-03-14T13:58:32.442Z,30.00
2018-03-14T14:01:00.011Z,30.00
2018-03-14T14:03:27.432Z,29.90
2018-03-14T14:05:55.657Z,29.90
2018-03-14T14:08:23.799Z,29.90
2018-03-14T14:10:51.246Z,29.00
2018-03-14T14:13:19.461Z,30.00
2018-03-14T14:15:46.913Z,30.00
2018-03-14T14:18:14.340Z,29.90
2018-03-14T14:20:41.964Z,29.40
2018-03-14T14:23:09.389Z,30.00
2018-03-14T14:25:36.856Z,29.90
2018-03-14T14:28:04.280Z,29.80
2018-03-14T14:30:32.528Z,29.90
2018-03-14T14:32:59.970Z,29.90
2018-03-14T14:35:27.385Z,29.20
2018-03-14T14:37:54.852Z,29.70
2018-03-14T14:40:22.285Z,30.40
2018-03-14T14:42:49.732Z,30.30
2018-03-14T14:45:17.962Z,30.90
2018-03-14T14:47:45.411Z,30.80
2018-03-14T14:50:12.849Z,30.20
2018-03-14T14:52:40.320Z,31.30
2018-03-14T14:55:07.746Z,32.10
2018-03-14T14:57:35.224Z,32.10
2018-03-14T15:00:03.089Z,33.60
2018-03-14T15:02:30.522Z,35.50
2018-03-14T15:04:57.978Z,35.20
2018-03-14T15:07:26.205Z,36.70
2018-03-14T15:09:53.675Z,36.60
2018-03-14T15:12:21.101Z,37.10
2018-03-14T15:14:48.549Z,36.20
2018-03-14T15:17:16.119Z,36.10
2018-03-14T15:19:43.685Z,35.70
2018-03-14T15:22:11.225Z,37.40
2018-03-14T15:24:38.680Z,36.60
2018-03-14T15:27:06.092Z,36.40
2018-03-14T15:29:33.527Z,36.50
2018-03-14T15:32:01.075Z,36.40
2018-03-14T15:34:28.523Z,36.20
2018-03-14T15:36:55.951Z,36.30
2018-03-14T15:39:24.174Z,36.80
2018-03-14T15:41:51.595Z,36.80
2018-03-14T15:44:19.026Z,36.40
2018-03-14T15:46:47.248Z,35.80
2018-03-14T15:49:14.661Z,35.80
2018-03-14T15:51:42.397Z,36.30
2018-03-14T15:54:09.822Z,36.20
2018-03-14T15:56:37.306Z,36.30
2018-03-14T15:59:04.706Z,36.40
2018-03-14T16:01:32.913Z,37.10
2018-03-14T16:04:00.366Z,37.10
2018-03-14T16:06:27.793Z,37.10
2018-03-14T16:08:55.987Z,38.10
2018-03-14T16:11:23.425Z,38.00
2018-03-14T16:13:51.615Z,38.30
2018-03-14T16:16:19.044Z,38.20
2018-03-14T16:18:46.486Z,37.70
2018-03-14T16:21:13.992Z,38.40
2018-03-14T16:23:42.339Z,37.80
2018-03-14T16:26:09.870Z,39.20
2018-03-14T16:28:37.312Z,39.40
2018-03-14T16:31:04.747Z,40.60
2018-03-14T16:33:32.209Z,42.10
2018-03-14T16:35:59.632Z,43.80
2018-03-14T16:38:27.953Z,45.40
2018-03-14T16:40:55.426Z,45.30
2018-03-14T16:43:22.887Z,46.60
2018-03-14T16:45:50.352Z,47.10
2018-03-14T16:48:17.830Z,48.20
2018-03-14T16:50:46.033Z,49.30
2018-03-14T16:53:14.238Z,50.40
2018-03-14T16:55:42.424Z,50.40
2018-03-14T16:58:09.867Z,50.80
2018-03-14T17:00:37.305Z,51.80
2018-03-14T17:03:05.480Z,52.50
2018-03-14T17:05:32.918Z,52.40
2018-03-14T17:08:01.145Z,53.50
2018-03-14T17:10:28.606Z,53.50
2018-03-14T17:12:56.044Z,53.30
2018-03-14T17:15:23.485Z,53.70
2018-03-14T17:17:50.948Z,54.10
2018-03-14T17:20:18.404Z,55.20
2018-03-14T17:22:45.857Z,55.30
2018-03-14T17:25:13.300Z,55.10
2018-03-14T17:27:42.440Z,56.50
2018-03-14T17:30:09.873Z,56.50
2018-03-14T17:32:37.333Z,57.60
2018-03-14T17:35:04.772Z,57.70
2018-03-14T17:37:32.365Z,59.00
2018-03-14T17:39:59.841Z,58.30
2018-03-14T17:42:27.263Z,59.10
2018-03-14T17:44:54.753Z,59.70
2018-03-14T17:47:22.206Z,60.50
2018-03-14T17:49:49.649Z,61.00
2018-03-14T17:52:17.101Z,61.80
2018-03-14T17:54:44.544Z,61.90
2018-03-14T17:57:12.020Z,62.20
2018-03-14T17:59:40.207Z,63.30
2018-03-14T18:02:07.625Z,63.30
2018-03-14T18:04:35.838Z,64.90
2018-03-14T18:07:03.276Z,64.80
2018-03-14T18:09:30.733Z,65.10
2018-03-14T18:11:58.181Z,64.80
2018-03-14T18:14:25.615Z,64.90
2018-03-14T18:16:53.849Z,66.60
2018-03-14T18:19:21.285Z,66.60
2018-03-14T18:21:48.757Z,67.20
2018-03-14T18:24:16.200Z,67.00
2018-03-14T18:26:43.675Z,68.30
2018-03-14T18:29:11.117Z,68.40
2018-03-14T18:31:38.544Z,68.10
2018-03-14T18:34:06.753Z,69.40
2018-03-14T18:36:34.206Z,69.20
2018-03-14T18:39:01.687Z,69.00
2018-03-14T18:41:29.158Z,69.50
2018-03-14T18:43:56.605Z,69.40
2018-03-14T18:46:24.050Z,70.00
2018-03-14T18:48:51.495Z,70.40
2018-03-14T18:51:18.965Z,70.70
2018-03-14T18:53:46.438Z,71.30
2018-03-14T18:56:13.875Z,70.70
2018-03-14T18:58:41.305Z,70.50
2018-03-14T19:01:08.788Z,71.20
2018-03-14T19:03:36.223Z,71.30
2018-03-14T19:06:03.690Z,71.50
2018-03-14T19:08:31.877Z,71.80
2018-03-14T19:10:59.319Z,71.80
2018-03-14T19:13:26.741Z,71.70
2018-03-14T19:15:54.174Z,71.70
2018-03-14T19:18:21.625Z,71.60
2018-03-14T19:20:49.099Z,72.80
2018-03-14T19:23:17.293Z,71.70
2018-03-14T19:25:45.551Z,73.30
2018-03-14T19:28:12.980Z,72.40
2018-03-14T19:30:40.416Z,72.20
2018-03-14T19:33:07.860Z,72.50
2018-03-14T19:35:36.104Z,74.20
2018-03-14T19:38:03.543Z,74.20
2018-03-14T19:40:30.974Z,74.30
2018-03-14T19:42:58.396Z,74.10
2018-03-14T19:45:26.625Z,74.40
2018-03-14T19:47:54.052Z,74.40
2018-03-14T19:50:21.489Z,74.40
2018-03-14T19:52:49.699Z,74.90
2018-03-14T19:55:17.154Z,74.90
2018-03-14T19:57:44.579Z,75.80
2018-03-14T20:00:12.806Z,75.70
2018-03-14T20:02:40.256Z,75.70
2018-03-14T20:05:07.684Z,75.40
2018-03-14T20:07:35.133Z,76.30
2018-03-14T20:10:03.349Z,76.80
2018-03-14T20:12:30.777Z,76.80
2018-03-14T20:14:58.217Z,76.80
2018-03-14T20:17:26.462Z,77.40
2018-03-14T20:19:53.940Z,77.40
2018-03-14T20:22:21.398Z,77.60
2018-03-14T20:24:48.868Z,77.30
2018-03-14T20:27:16.336Z,77.70
2018-03-14T20:29:44.540Z,78.40
2018-03-14T20:32:12.033Z,78.30
2018-03-14T20:34:39.472Z,79.10
2018-03-14T20:37:06.920Z,78.90
2018-03-14T20:39:34.378Z,78.90
2018-03-14T20:42:01.825Z,79.00
2018-03-14T20:44:29.296Z,79.40
2018-03-14T20:46:56.732Z,79.80
2018-03-14T20:49:24.182Z,80.20
2018-03-14T20:51:51.631Z,80.20
2018-03-14T20:54:19.080Z,79.80
2018-03-14T20:56:47.277Z,80.40
2018-03-14T20:59:14.717Z,80.30
2018-03-14T21:01:43.846Z,81.60
2018-03-14T21:04:11.305Z,81.60
2018-03-14T21:06:38.752Z,81.70
2018-03-14T21:09:06.194Z,81.60
2018-03-14T21:11:33.639Z,81.60
2018-03-14T21:14:02.845Z,82.70
2018-03-14T21:16:31.132Z,84.50
2018-03-14T21:18:59.322Z,85.50
2018-03-14T21:21:26.765Z,84.70
2018-03-14T21:23:54.244Z,85.00
2018-03-14T21:26:21.672Z,84.90
2018-03-14T21:28:49.117Z,85.40
2018-03-14T21:31:17.331Z,85.50
2018-03-14T21:33:44.770Z,85.30
2018-03-14T21:36:12.352Z,85.40
2018-03-14T21:38:39.842Z,85.20
2018-03-14T21:41:07.260Z,85.50
2018-03-14T21:43:34.704Z,86.60
2018-03-14T21:46:02.153Z,86.90
2018-03-14T21:48:30.382Z,87.20
2018-03-14T21:50:57.844Z,87.20
2018-03-14T21:53:25.263Z,87.40
2018-03-14T21:55:52.714Z,87.30
2018-03-14T21:58:20.140Z,87.50
2018-03-14T22:00:48.382Z,87.10
2018-03-14T22:03:15.851Z,87.00
2018-03-14T22:05:43.288Z,87.40
2018-03-14T22:08:11.558Z,87.60
2018-03-14T22:10:38.997Z,87.60
2018-03-14T22:13:06.420Z,88.10
2018-03-14T22:15:33.891Z,88.30
2018-03-14T22:18:01.276Z,89.10
2018-03-14T22:20:28.714Z,88.60
2018-03-14T22:22:56.149Z,88.10
2018-03-14T22:25:23.617Z,88.90
2018-03-14T22:27:51.858Z,88.90
2018-03-14T22:30:19.276Z,88.80
2018-03-14T22:32:46.735Z,88.30
2018-03-14T22:35:14.142Z,88.70
2018-03-14T22:37:41.583Z,90.00
2018-03-14T22:40:09.768Z,90.00
2018-03-14T22:42:37.216Z,90.00
2018-03-14T22:45:04.652Z,90.00
2018-03-14T22:47:32.101Z,90.00
2018-03-14T22:49:59.520Z,89.80
2018-03-14T22:52:27.731Z,90.10
2018-03-14T22:54:55.167Z,90.10
2018-03-14T22:57:23.365Z,90.30
2018-03-14T22:59:50.793Z,90.30
2018-03-14T23:02:19.009Z,90.40
2018-03-14T23:04:47.231Z,90.40
2018-03-14T23:07:14.679Z,90.40
2018-03-14T23:09:42.149Z,90.60
2018-03-14T23:12:09.587Z,90.40
2018-03-14T23:14:37.019Z,90.80
2018-03-14T23:17:04.544Z,91.00
2018-03-14T23:19:32.744Z,90.90
2018-03-14T23:22:00.173Z,90.90
2018-03-14T23:24:27.631Z,91.00
2018-03-14T23:26:55.054Z,91.00
2018-03-14T23:29:22.489Z,90.90
2018-03-14T23:31:49.983Z,91.00
2018-03-14T23:34:17.425Z,90.90
2018-03-14T23:36:44.910Z,90.80
2018-03-14T23:39:13.152Z,91.30
2018-03-14T23:41:40.582Z,91.20
2018-03-14T23:44:08.044Z,91.30
2018-03-14T23:46:35.492Z,91.00
2018-03-14T23:49:03.685Z,90.80
2018-03-14T23:51:31.121Z,90.80
2018-03-14T23:53:58.579Z,90.60
2018-03-14T23:56:26.048Z,90.70
2018-03-14T23:58:53.482Z,90.70
